Time;durP1;ratioP1;P1;durP2;ratioP2;P2;SDS_P1;SDS_P2;PMS_P1;PMS_P2;Temp;Humidity;BMP_temperature;BMP_pressure;BME280_temperature;BME280_humidity;BME280_pressure;Samples;Min_cycle;Max_cycle;Signal;HPM_P1;HPM_P2
2022/07/04 00:00:27;;;;;;;1.30;1.20;;;;;;;;;;5056882;28;20222;-78
2022/07/04 00:02:54;;;;;;;1.02;1.02;;;;;;;;;;5056428;28;20221;-78
2022/07/04 00:05:23;;;;;;;1.25;1.17;;;;;;;;;;5056086;28;20300;-79
2022/07/04 00:07:51;;;;;;;1.20;1.20;;;;;;;;;;5056090;28;20233;-78
2022/07/04 00:10:20;;;;;;;3.05;1.55;;;;;;;;;;5055922;28;20260;-78
2022/07/04 00:12:48;;;;;;;0.88;0.88;;;;;;;;;;5056007;28;20205;-79
2022/07/04 00:15:16;;;;;;;2.05;1.95;;;;;;;;;;5056414;28;20208;-79
2022/07/04 00:17:44;;;;;;;1.00;1.00;;;;;;;;;;5055422;28;20233;-79
2022/07/04 00:20:12;;;;;;;1.00;1.00;;;;;;;;;;5055400;28;20327;-78
2022/07/04 00:22:41;;;;;;;1.20;1.10;;;;;;;;;;5055130;28;20249;-79
2022/07/04 00:25:09;;;;;;;2.78;1.08;;;;;;;;;;5055666;28;20201;-78
2022/07/04 00:27:37;;;;;;;0.95;0.95;;;;;;;;;;5055425;28;20274;-78
2022/07/04 00:30:06;;;;;;;1.13;1.02;;;;;;;;;;5055129;28;20201;-79
2022/07/04 00:32:34;;;;;;;0.95;0.95;;;;;;;;;;5055037;28;20228;-78
2022/07/04 00:35:01;;;;;;;2.67;1.00;;;;;;;;;;5054527;28;20233;-78
2022/07/04 00:37:29;;;;;;;0.90;0.90;;;;;;;;;;5055895;28;20239;-79
2022/07/04 00:39:57;;;;;;;1.17;1.10;;;;;;;;;;5055876;28;20236;-78
2022/07/04 00:42:25;;;;;;;0.90;0.90;;;;;;;;;;5055886;28;20257;-79
2022/07/04 00:44:53;;;;;;;0.60;0.60;;;;;;;;;;5055343;28;20237;-78
2022/07/04 00:47:20;;;;;;;0.85;0.85;;;;;;;;;;5054421;28;20241;-79
2022/07/04 00:49:48;;;;;;;1.10;1.10;;;;;;;;;;5054500;28;20240;-78
2022/07/04 00:52:16;;;;;;;0.90;0.90;;;;;;;;;;5053801;28;20248;-78
2022/07/04 00:54:45;;;;;;;1.50;0.98;;;;;;;;;;5054300;28;20702;-78
2022/07/04 00:57:13;;;;;;;0.77;0.77;;;;;;;;;;5054284;28;20233;-78
2022/07/04 00:59:41;;;;;;;1.00;1.00;;;;;;;;;;5054356;28;20229;-78
2022/07/04 01:02:09;;;;;;;0.82;0.82;;;;;;;;;;5053698;28;20257;-79
2022/07/04 01:04:36;;;;;;;1.52;0.68;;;;;;;;;;5053748;28;20236;-78
2022/07/04 01:07:05;;;;;;;1.10;1.10;;;;;;;;;;5054280;28;20237;-78
2022/07/04 01:09:33;;;;;;;1.80;0.88;;;;;;;;;;5054362;28;20237;-78
2022/07/04 01:12:00;;;;;;;0.80;0.80;;;;;;;;;;5053392;28;20225;-78
2022/07/04 01:14:29;;;;;;;0.57;0.57;;;;;;;;;;5053744;28;20208;-79
2022/07/04 01:16:56;;;;;;;0.75;0.60;;;;;;;;;;5054589;28;20229;-78
2022/07/04 01:19:24;;;;;;;0.75;0.75;;;;;;;;;;5054125;28;20658;-78
2022/07/04 01:21:53;;;;;;;1.27;1.27;;;;;;;;;;5053708;28;20257;-78
2022/07/04 01:24:20;;;;;;;0.95;0.95;;;;;;;;;;5053905;28;20287;-78
2022/07/04 01:26:48;;;;;;;2.05;1.33;;;;;;;;;;5053566;28;20237;-79
2022/07/04 01:29:17;;;;;;;3.05;1.25;;;;;;;;;;5053862;28;20237;-80
2022/07/04 01:31:44;;;;;;;0.85;0.85;;;;;;;;;;5053822;28;20248;-79
2022/07/04 01:34:12;;;;;;;0.70;0.70;;;;;;;;;;5053253;28;20284;-79
2022/07/04 01:36:39;;;;;;;1.02;0.98;;;;;;;;;;5053717;28;20709;-78
2022/07/04 01:39:08;;;;;;;0.70;0.70;;;;;;;;;;5053761;28;20312;-78
2022/07/04 01:41:36;;;;;;;0.90;0.90;;;;;;;;;;5078379;22;20740;-78
2022/07/04 01:44:04;;;;;;;0.57;0.57;;;;;;;;;;5051128;28;20312;-78
2022/07/04 01:46:31;;;;;;;0.70;0.70;;;;;;;;;;5043349;28;20243;-77
2022/07/04 01:48:59;;;;;;;1.02;1.02;;;;;;;;;;5051658;28;20241;-78
2022/07/04 01:51:26;;;;;;;0.70;0.70;;;;;;;;;;5051098;28;20297;-78
2022/07/04 01:53:54;;;;;;;0.73;0.73;;;;;;;;;;5050849;28;20225;-78
2022/07/04 01:56:23;;;;;;;1.00;0.80;;;;;;;;;;5077602;23;20310;-82
2022/07/04 01:58:50;;;;;;;0.70;0.70;;;;;;;;;;5092349;28;20224;-82
2022/07/04 02:01:31;;;;;;;0.70;0.70;;;;;;;;;;5068800;28;20293;-82
2022/07/04 02:04:00;;;;;;;1.40;1.30;;;;;;;;;;5057910;28;20231;-83
2022/07/04 02:06:28;;;;;;;0.68;0.68;;;;;;;;;;5058242;28;20233;-84
2022/07/04 02:14:28;;;;;;;0.73;0.73;;;;;;;;;;5078840;28;20402;-82
2022/07/04 02:16:56;;;;;;;0.70;0.70;;;;;;;;;;5078868;28;20292;-83
2022/07/04 02:19:23;;;;;;;0.98;0.90;;;;;;;;;;5078811;28;20197;-82
2022/07/04 02:21:51;;;;;;;0.80;0.80;;;;;;;;;;5080154;28;20252;-84
2022/07/04 02:24:19;;;;;;;0.82;0.82;;;;;;;;;;5081905;28;20221;-81
2022/07/04 02:26:49;;;;;;;0.80;0.80;;;;;;;;;;5080588;28;20197;-82
2022/07/04 02:29:16;;;;;;;1.00;1.00;;;;;;;;;;5061019;28;20201;-84
2022/07/04 02:31:44;;;;;;;0.85;0.85;;;;;;;;;;5060197;28;20268;-84
2022/07/04 02:34:12;;;;;;;1.38;1.30;;;;;;;;;;5061141;28;20240;-83
2022/07/04 02:36:39;;;;;;;13.07;3.30;;;;;;;;;;5059429;28;20229;-84
2022/07/04 02:39:07;;;;;;;0.90;0.90;;;;;;;;;;5060004;28;20225;-82
2022/07/04 02:41:34;;;;;;;0.88;0.88;;;;;;;;;;5060054;28;20253;-83
2022/07/04 02:44:04;;;;;;;1.00;1.00;;;;;;;;;;5059711;28;20264;-84
2022/07/04 02:46:32;;;;;;;0.80;0.80;;;;;;;;;;5060626;28;20240;-84
2022/07/04 02:49:00;;;;;;;0.75;0.75;;;;;;;;;;5060988;28;20554;-84
2022/07/04 02:51:28;;;;;;;0.90;0.90;;;;;;;;;;5060957;28;20253;-84
2022/07/04 02:53:55;;;;;;;1.05;0.77;;;;;;;;;;5059531;28;20197;-83
2022/07/04 02:56:23;;;;;;;0.93;0.93;;;;;;;;;;5060668;28;20233;-84
2022/07/04 02:58:50;;;;;;;0.80;0.80;;;;;;;;;;5060454;28;20241;-84
2022/07/04 03:01:20;;;;;;;1.30;1.30;;;;;;;;;;5062364;28;20225;-84
2022/07/04 03:03:48;;;;;;;1.00;1.00;;;;;;;;;;5061987;28;20221;-83
2022/07/04 03:06:17;;;;;;;0.80;0.80;;;;;;;;;;5062443;28;20232;-84
2022/07/04 03:08:44;;;;;;;0.88;0.88;;;;;;;;;;5060475;28;20284;-84
2022/07/04 03:11:12;;;;;;;1.10;0.90;;;;;;;;;;5061070;28;20259;-83
2022/07/04 03:13:43;;;;;;;0.88;0.88;;;;;;;;;;5060953;28;20236;-84
2022/07/04 03:16:11;;;;;;;0.60;0.60;;;;;;;;;;5060796;28;20198;-84
2022/07/04 03:18:40;;;;;;;1.10;1.10;;;;;;;;;;5060911;28;20303;-84
2022/07/04 03:21:07;;;;;;;0.82;0.82;;;;;;;;;;5060331;28;20631;-83
2022/07/04 03:23:35;;;;;;;0.95;0.85;;;;;;;;;;5059256;28;20197;-84
2022/07/04 03:26:04;;;;;;;1.00;1.00;;;;;;;;;;5060952;28;20217;-83
2022/07/04 03:28:31;;;;;;;1.23;1.13;;;;;;;;;;5060401;28;20237;-84
2022/07/04 03:30:59;;;;;;;1.00;1.00;;;;;;;;;;5059997;28;20256;-82
2022/07/04 03:33:27;;;;;;;0.95;0.95;;;;;;;;;;5058512;28;20293;-84
2022/07/04 03:35:56;;;;;;;2.10;1.25;;;;;;;;;;5058783;28;20216;-82
2022/07/04 03:38:23;;;;;;;0.90;0.90;;;;;;;;;;5060492;28;20233;-82
2022/07/04 03:40:51;;;;;;;1.80;1.00;;;;;;;;;;5060854;28;20289;-85
2022/07/04 03:43:18;;;;;;;1.10;1.10;;;;;;;;;;5059935;28;20292;-84
2022/07/04 03:45:46;;;;;;;0.93;0.85;;;;;;;;;;5060528;28;20248;-84
2022/07/04 03:48:13;;;;;;;1.20;1.10;;;;;;;;;;5059969;28;20265;-84
2022/07/04 03:50:41;;;;;;;1.00;1.00;;;;;;;;;;5059582;28;20222;-84
2022/07/04 03:53:10;;;;;;;1.70;1.55;;;;;;;;;;5059139;28;20236;-83
2022/07/04 03:55:37;;;;;;;1.63;1.52;;;;;;;;;;5060185;28;20228;-84
2022/07/04 03:58:05;;;;;;;1.50;1.40;;;;;;;;;;5058556;28;20208;-83
2022/07/04 04:00:33;;;;;;;0.90;0.90;;;;;;;;;;5058853;28;20333;-85
2022/07/04 04:03:00;;;;;;;1.80;1.20;;;;;;;;;;5058618;28;20244;-85
2022/07/04 04:05:27;;;;;;;1.23;1.23;;;;;;;;;;5058831;28;20260;-84
2022/07/04 04:07:56;;;;;;;1.45;1.35;;;;;;;;;;5057882;28;20245;-84
2022/07/04 04:10:27;;;;;;;1.58;1.38;;;;;;;;;;5058646;28;20244;-83
2022/07/04 04:12:55;;;;;;;1.40;1.30;;;;;;;;;;5058489;28;20205;-84
2022/07/04 04:15:22;;;;;;;2.33;1.50;;;;;;;;;;5058888;28;20240;-85
2022/07/04 04:17:50;;;;;;;0.90;0.90;;;;;;;;;;5058589;28;20208;-83
2022/07/04 04:20:18;;;;;;;2.45;1.40;;;;;;;;;;5058879;28;20228;-84
2022/07/04 04:22:45;;;;;;;1.70;1.60;;;;;;;;;;5058626;28;20236;-83
2022/07/04 04:25:13;;;;;;;1.67;1.58;;;;;;;;;;5058630;28;20257;-84
2022/07/04 04:27:42;;;;;;;1.15;1.15;;;;;;;;;;5058421;28;20245;-83
2022/07/04 04:30:10;;;;;;;1.00;1.00;;;;;;;;;;5057849;28;20233;-83
2022/07/04 04:32:38;;;;;;;1.25;1.20;;;;;;;;;;5057716;28;20202;-83
2022/07/04 04:35:07;;;;;;;1.20;1.20;;;;;;;;;;5058972;28;20244;-82
2022/07/04 04:37:35;;;;;;;0.80;0.80;;;;;;;;;;5058323;28;20211;-82
2022/07/04 04:40:02;;;;;;;1.23;1.17;;;;;;;;;;5059254;28;20304;-83
2022/07/04 04:42:30;;;;;;;0.98;0.90;;;;;;;;;;5058017;28;20658;-82
2022/07/04 04:44:59;;;;;;;1.20;1.10;;;;;;;;;;5059686;28;20225;-81
2022/07/04 04:47:26;;;;;;;0.77;0.77;;;;;;;;;;5060312;28;20240;-82
2022/07/04 04:49:54;;;;;;;0.80;0.80;;;;;;;;;;5060951;28;20229;-80
2022/07/04 04:52:21;;;;;;;1.00;1.00;;;;;;;;;;5057874;28;20659;-84
2022/07/04 04:54:49;;;;;;;1.58;1.45;;;;;;;;;;5059909;28;20623;-83
2022/07/04 04:57:16;;;;;;;1.83;1.70;;;;;;;;;;5058304;28;20280;-83
2022/07/04 04:59:44;;;;;;;1.80;1.70;;;;;;;;;;5058344;28;20635;-82
2022/07/04 05:02:13;;;;;;;1.60;1.50;;;;;;;;;;5056814;28;20221;-84
2022/07/04 05:04:40;;;;;;;1.90;1.80;;;;;;;;;;5057482;28;20669;-84
2022/07/04 05:07:08;;;;;;;2.58;1.67;;;;;;;;;;5057788;28;20289;-83
2022/07/04 05:09:35;;;;;;;2.10;2.00;;;;;;;;;;5056627;28;20783;-82
2022/07/04 05:12:03;;;;;;;3.10;2.90;;;;;;;;;;5055843;28;20265;-83
2022/07/04 05:14:31;;;;;;;3.22;2.95;;;;;;;;;;5055677;28;20201;-84
2022/07/04 05:16:58;;;;;;;3.10;2.90;;;;;;;;;;5055575;28;20347;-82
2022/07/04 05:19:27;;;;;;;3.15;2.80;;;;;;;;;;5056073;28;20248;-85
2022/07/04 05:21:55;;;;;;;2.70;2.50;;;;;;;;;;5054928;28;20253;-84
2022/07/04 05:24:22;;;;;;;2.63;2.15;;;;;;;;;;5055753;28;20236;-83
2022/07/04 05:26:50;;;;;;;3.58;1.90;;;;;;;;;;5055105;28;20276;-84
2022/07/04 05:29:18;;;;;;;2.22;1.80;;;;;;;;;;5055805;28;20251;-84
2022/07/04 05:31:45;;;;;;;4.18;1.65;;;;;;;;;;5055496;28;20331;-83
2022/07/04 05:34:13;;;;;;;1.65;1.55;;;;;;;;;;5056571;28;20233;-83
2022/07/04 05:36:42;;;;;;;1.52;1.42;;;;;;;;;;5054774;28;20748;-83
2022/07/04 05:39:09;;;;;;;2.25;1.88;;;;;;;;;;5055480;28;20549;-83
2022/07/04 05:41:37;;;;;;;1.55;1.45;;;;;;;;;;5054815;28;20269;-82
2022/07/04 05:44:05;;;;;;;3.17;1.35;;;;;;;;;;5054962;28;20237;-84
2022/07/04 05:46:33;;;;;;;2.22;1.35;;;;;;;;;;5054353;28;20435;-83
2022/07/04 05:49:00;;;;;;;1.48;1.30;;;;;;;;;;5054665;28;20233;-85
2022/07/04 05:51:28;;;;;;;2.50;1.75;;;;;;;;;;5055408;28;20252;-84
2022/07/04 05:53:57;;;;;;;1.70;1.50;;;;;;;;;;5054497;28;20569;-82
2022/07/04 05:56:24;;;;;;;1.85;1.58;;;;;;;;;;5054638;28;20273;-83
2022/07/04 05:58:52;;;;;;;2.10;1.90;;;;;;;;;;5054576;28;20237;-84
2022/07/04 06:01:20;;;;;;;1.80;1.70;;;;;;;;;;5054854;28;20229;-84
2022/07/04 06:03:48;;;;;;;1.75;1.50;;;;;;;;;;5054947;28;20243;-84
2022/07/04 06:06:16;;;;;;;1.23;1.23;;;;;;;;;;5055326;28;20257;-84
2022/07/04 06:08:44;;;;;;;1.50;1.40;;;;;;;;;;5054676;28;20666;-84
2022/07/04 06:11:14;;;;;;;3.38;1.98;;;;;;;;;;5055479;28;20257;-83
2022/07/04 06:13:41;;;;;;;1.45;1.35;;;;;;;;;;5055915;28;20649;-83
2022/07/04 06:16:09;;;;;;;1.50;1.40;;;;;;;;;;5056413;28;20244;-85
2022/07/04 06:18:36;;;;;;;1.00;1.00;;;;;;;;;;5056311;28;20595;-83
2022/07/04 06:21:04;;;;;;;1.83;1.30;;;;;;;;;;5056471;28;20221;-83
2022/07/04 06:23:32;;;;;;;2.80;1.40;;;;;;;;;;5055390;28;20232;-83
2022/07/04 06:25:59;;;;;;;1.80;1.50;;;;;;;;;;5056589;28;20716;-85
2022/07/04 06:28:29;;;;;;;2.08;1.88;;;;;;;;;;5057091;28;20209;-85
2022/07/04 06:30:56;;;;;;;1.40;1.30;;;;;;;;;;5056288;28;20596;-82
2022/07/04 06:33:24;;;;;;;1.88;1.20;;;;;;;;;;5056073;28;20623;-83
2022/07/04 06:35:54;;;;;;;1.35;1.27;;;;;;;;;;5056262;28;20229;-85
2022/07/04 06:38:25;;;;;;;1.48;1.38;;;;;;;;;;5056141;28;20202;-85
2022/07/04 06:40:56;;;;;;;1.50;1.40;;;;;;;;;;5056973;28;20639;-84
2022/07/04 06:43:24;;;;;;;1.73;1.30;;;;;;;;;;5056403;28;20233;-85
2022/07/04 06:45:53;;;;;;;1.23;1.13;;;;;;;;;;5056054;28;20268;-85
2022/07/04 06:48:21;;;;;;;1.45;1.15;;;;;;;;;;5057091;28;20244;-83
2022/07/04 06:50:48;;;;;;;3.05;1.30;;;;;;;;;;5056600;28;20261;-82
2022/07/04 06:53:16;;;;;;;1.30;1.13;;;;;;;;;;5054241;28;20244;-85
2022/07/04 06:55:44;;;;;;;3.10;1.40;;;;;;;;;;5056785;28;20236;-85
2022/07/04 06:58:12;;;;;;;1.75;1.38;;;;;;;;;;5057683;28;20628;-84
2022/07/04 07:00:41;;;;;;;1.00;1.00;;;;;;;;;;5057855;28;20717;-85
2022/07/04 07:03:10;;;;;;;1.30;1.20;;;;;;;;;;5057670;28;20206;-85
2022/07/04 07:05:38;;;;;;;1.10;1.02;;;;;;;;;;5058253;28;20658;-86
2022/07/04 07:08:05;;;;;;;0.90;0.90;;;;;;;;;;5060873;28;20198;-86
2022/07/04 07:10:34;;;;;;;1.38;1.00;;;;;;;;;;5061002;28;20736;-85
2022/07/04 07:13:02;;;;;;;0.80;0.80;;;;;;;;;;5060318;28;20212;-85
2022/07/04 07:15:31;;;;;;;1.10;1.00;;;;;;;;;;5060860;28;20581;-86
2022/07/04 07:17:58;;;;;;;1.02;0.95;;;;;;;;;;5061541;28;20247;-85
2022/07/04 07:20:27;;;;;;;1.08;1.08;;;;;;;;;;5060539;28;20253;-85
2022/07/04 07:22:55;;;;;;;0.80;0.80;;;;;;;;;;5060353;28;20229;-86
2022/07/04 07:25:22;;;;;;;1.20;1.10;;;;;;;;;;5060833;28;20236;-86
2022/07/04 07:27:50;;;;;;;0.95;0.95;;;;;;;;;;5059487;28;20275;-86
2022/07/04 07:30:18;;;;;;;1.40;1.30;;;;;;;;;;5060181;28;20210;-85
2022/07/04 07:32:45;;;;;;;0.90;0.90;;;;;;;;;;5059453;28;20213;-87
2022/07/04 07:35:14;;;;;;;1.20;1.15;;;;;;;;;;5060616;28;20666;-86
2022/07/04 07:37:43;;;;;;;1.85;1.10;;;;;;;;;;5060946;28;20205;-85
2022/07/04 07:40:11;;;;;;;2.50;1.15;;;;;;;;;;5059641;28;20240;-86
2022/07/04 07:42:39;;;;;;;1.40;1.30;;;;;;;;;;5059490;28;20209;-85
2022/07/04 07:45:09;;;;;;;3.00;1.58;;;;;;;;;;5060002;28;20646;-83
2022/07/04 07:47:36;;;;;;;1.60;1.45;;;;;;;;;;5060781;28;20713;-84
2022/07/04 07:50:04;;;;;;;1.27;1.20;;;;;;;;;;5060086;28;20239;-84
2022/07/04 07:52:32;;;;;;;1.50;1.40;;;;;;;;;;5059654;28;20202;-83
2022/07/04 07:55:01;;;;;;;1.45;1.40;;;;;;;;;;5059939;28;20407;-84
2022/07/04 07:57:29;;;;;;;1.73;1.30;;;;;;;;;;5060048;28;20669;-86
2022/07/04 07:59:56;;;;;;;2.28;1.60;;;;;;;;;;5058880;28;20237;-86
2022/07/04 08:04:34;;;;;;;1.52;1.42;;;;;;;;;;5057387;28;20253;-85
2022/07/04 08:05:12;;;;;;;2.05;1.27;;;;;;;;;;5057728;28;20597;-85
2022/07/04 08:07:41;;;;;;;1.67;1.58;;;;;;;;;;5057607;28;20252;-86
2022/07/04 08:10:10;;;;;;;1.70;1.58;;;;;;;;;;5057682;28;20270;-85
2022/07/04 08:12:38;;;;;;;1.50;1.40;;;;;;;;;;5055704;28;20248;-83
2022/07/04 08:15:07;;;;;;;2.35;1.30;;;;;;;;;;5056431;28;20232;-83
2022/07/04 08:17:35;;;;;;;1.52;1.33;;;;;;;;;;5055386;28;20233;-84
2022/07/04 08:20:03;;;;;;;1.23;1.15;;;;;;;;;;5056434;28;20626;-83
2022/07/04 08:22:30;;;;;;;1.50;1.40;;;;;;;;;;5056430;28;20304;-84
2022/07/04 08:24:58;;;;;;;1.10;1.10;;;;;;;;;;5057327;28;20237;-84
2022/07/04 08:27:27;;;;;;;1.10;1.10;;;;;;;;;;5056847;28;20249;-83
2022/07/04 08:29:54;;;;;;;0.95;0.95;;;;;;;;;;5057451;28;20243;-83
2022/07/04 08:32:22;;;;;;;1.10;1.00;;;;;;;;;;5056885;28;20279;-82
2022/07/04 08:34:49;;;;;;;1.38;1.33;;;;;;;;;;5057021;28;20553;-82
2022/07/04 08:37:17;;;;;;;1.42;1.33;;;;;;;;;;5056452;28;20240;-83
2022/07/04 08:39:44;;;;;;;1.02;1.02;;;;;;;;;;5056386;28;20677;-82
2022/07/04 08:42:18;;;;;;;2.30;1.23;;;;;;;;;;5055746;28;20260;-83
2022/07/04 08:44:50;;;;;;;2.13;1.73;;;;;;;;;;5056461;28;20237;-83
2022/07/04 08:47:20;;;;;;;1.42;1.35;;;;;;;;;;5056432;28;20304;-82
2022/07/04 08:49:55;;;;;;;1.05;1.02;;;;;;;;;;5056347;28;20627;-83
2022/07/04 08:52:35;;;;;;;1.52;1.42;;;;;;;;;;5056343;28;20225;-83
2022/07/04 09:00:37;;;;;;;1.60;1.50;;;;;;;;;;5076136;28;20224;-82
2022/07/04 09:03:05;;;;;;;1.50;1.40;;;;;;;;;;5074930;28;20302;-82
2022/07/04 09:05:33;;;;;;;1.90;1.75;;;;;;;;;;5075219;28;20239;-83
2022/07/04 09:08:01;;;;;;;1.55;1.45;;;;;;;;;;5075979;28;20309;-81
2022/07/04 09:10:30;;;;;;;1.10;1.10;;;;;;;;;;5075537;28;20736;-83
2022/07/04 09:12:58;;;;;;;1.10;1.10;;;;;;;;;;5075360;28;20212;-83
2022/07/04 09:15:27;;;;;;;0.95;0.95;;;;;;;;;;5074570;28;20307;-82
2022/07/04 09:17:56;;;;;;;2.15;1.27;;;;;;;;;;5075645;28;20203;-83
2022/07/04 09:20:25;;;;;;;1.30;1.30;;;;;;;;;;5075226;28;20248;-83
2022/07/04 09:22:54;;;;;;;1.63;1.52;;;;;;;;;;5074976;28;20562;-82
2022/07/04 09:25:22;;;;;;;1.50;1.40;;;;;;;;;;5075942;28;20204;-83
2022/07/04 09:27:52;;;;;;;1.00;1.00;;;;;;;;;;5066555;28;20261;-83
2022/07/04 09:30:21;;;;;;;1.30;1.20;;;;;;;;;;5055752;28;20567;-82
2022/07/04 09:32:51;;;;;;;1.10;1.10;;;;;;;;;;5055326;28;20221;-81
2022/07/04 09:35:23;;;;;;;1.38;1.27;;;;;;;;;;5056059;28;20231;-82
2022/07/04 09:37:52;;;;;;;1.25;1.15;;;;;;;;;;5056328;28;20214;-83
2022/07/04 09:40:25;;;;;;;1.55;1.45;;;;;;;;;;5055914;28;20240;-83
2022/07/04 09:42:54;;;;;;;1.85;1.70;;;;;;;;;;5056261;28;20633;-81
2022/07/04 09:45:23;;;;;;;1.20;1.20;;;;;;;;;;5054960;28;20205;-83
2022/07/04 09:47:54;;;;;;;1.23;1.23;;;;;;;;;;5056306;28;20598;-83
2022/07/04 09:50:25;;;;;;;1.27;1.20;;;;;;;;;;5055806;28;20232;-82
2022/07/04 09:52:57;;;;;;;0.82;0.82;;;;;;;;;;5055841;28;20186;-82
2022/07/04 09:55:27;;;;;;;1.48;1.38;;;;;;;;;;5056058;28;20201;-81
2022/07/04 09:57:56;;;;;;;1.10;1.10;;;;;;;;;;5056391;28;20761;-83
2022/07/04 10:00:27;;;;;;;1.25;1.10;;;;;;;;;;5055407;28;20222;-82
2022/07/04 10:02:56;;;;;;;1.65;1.55;;;;;;;;;;5054912;28;20626;-83
2022/07/04 10:05:27;;;;;;;1.50;1.40;;;;;;;;;;5056689;28;20300;-83
2022/07/04 10:07:57;;;;;;;1.40;1.30;;;;;;;;;;5055828;28;20620;-82
2022/07/04 10:10:32;;;;;;;2.92;1.35;;;;;;;;;;5055425;28;20654;-82
2022/07/04 10:13:03;;;;;;;1.20;1.10;;;;;;;;;;5056023;28;20185;-82
2022/07/04 10:15:31;;;;;;;1.40;1.30;;;;;;;;;;5055526;28;20218;-82
2022/07/04 10:17:59;;;;;;;1.20;1.20;;;;;;;;;;5054727;28;20627;-82
2022/07/04 10:20:28;;;;;;;1.33;0.85;;;;;;;;;;5054689;28;20257;-82
2022/07/04 10:22:56;;;;;;;1.20;1.20;;;;;;;;;;5054395;28;20614;-82
2022/07/04 10:25:24;;;;;;;1.25;1.17;;;;;;;;;;5056175;28;20741;-84
2022/07/04 10:27:52;;;;;;;0.90;0.90;;;;;;;;;;5055579;28;20672;-83
2022/07/04 10:30:25;;;;;;;0.77;0.77;;;;;;;;;;5056050;28;20263;-82
2022/07/04 10:32:54;;;;;;;0.80;0.80;;;;;;;;;;5054722;28;20217;-82
2022/07/04 10:35:53;;;;;;;0.85;0.85;;;;;;;;;;5054724;28;20721;-82
2022/07/04 10:38:22;;;;;;;0.75;0.75;;;;;;;;;;5055523;28;20193;-82
2022/07/04 10:40:52;;;;;;;0.80;0.80;;;;;;;;;;5055646;28;20245;-82
2022/07/04 10:44:04;;;;;;;1.00;0.98;;;;;;;;;;5058769;28;20288;-83
2022/07/04 10:46:46;;;;;;;0.73;0.73;;;;;;;;;;5056929;28;20689;-82
2022/07/04 10:49:23;;;;;;;0.70;0.70;;;;;;;;;;5058851;28;20695;-82
2022/07/04 10:51:54;;;;;;;0.80;0.80;;;;;;;;;;5058097;28;20229;-81
2022/07/04 10:54:29;;;;;;;1.00;0.90;;;;;;;;;;5058302;28;20913;-81
2022/07/04 10:56:58;;;;;;;0.90;0.90;;;;;;;;;;5061727;28;20186;-83
2022/07/04 10:59:29;;;;;;;0.70;0.70;;;;;;;;;;5078695;28;20650;-82
2022/07/04 11:02:29;;;;;;;0.95;0.95;;;;;;;;;;5077362;28;20252;-82
2022/07/04 11:05:05;;;;;;;0.93;0.80;;;;;;;;;;5075334;28;20229;-82
2022/07/04 11:08:06;;;;;;;0.82;0.82;;;;;;;;;;5078446;28;20204;-83
2022/07/04 11:10:36;;;;;;;0.93;0.90;;;;;;;;;;5078260;28;20247;-84
2022/07/04 11:13:17;;;;;;;0.93;0.93;;;;;;;;;;5077571;28;20617;-83
2022/07/04 11:16:03;;;;;;;0.70;0.70;;;;;;;;;;5077722;28;20185;-84
2022/07/04 11:18:34;;;;;;;0.73;0.73;;;;;;;;;;5076215;28;20197;-81
2022/07/04 11:21:01;;;;;;;0.77;0.77;;;;;;;;;;5077437;28;20309;-83
2022/07/04 11:23:30;;;;;;;0.70;0.70;;;;;;;;;;5077170;28;20229;-82
2022/07/04 11:26:01;;;;;;;1.05;0.98;;;;;;;;;;5077746;28;20255;-83
2022/07/04 11:28:33;;;;;;;1.23;1.13;;;;;;;;;;5078332;28;20225;-83
2022/07/04 11:31:01;;;;;;;0.80;0.80;;;;;;;;;;5078058;28;20220;-83
2022/07/04 11:33:31;;;;;;;0.93;0.93;;;;;;;;;;5077093;28;20241;-83
2022/07/04 11:36:06;;;;;;;0.80;0.80;;;;;;;;;;5077342;28;20197;-84
2022/07/04 11:38:56;;;;;;;0.80;0.80;;;;;;;;;;5077134;28;20225;-83
2022/07/04 11:47:21;;;;;;;1.45;0.80;;;;;;;;;;5077558;28;20200;-82
2022/07/04 11:49:51;;;;;;;0.70;0.70;;;;;;;;;;5077523;28;20225;-81
2022/07/04 11:52:22;;;;;;;0.82;0.82;;;;;;;;;;5076960;28;20252;-82
2022/07/04 11:54:52;;;;;;;0.70;0.70;;;;;;;;;;5076863;28;20215;-82
2022/07/04 11:57:23;;;;;;;0.85;0.85;;;;;;;;;;5071971;28;20233;-82
2022/07/04 11:59:59;;;;;;;0.80;0.80;;;;;;;;;;5056899;28;20194;-81
2022/07/04 12:02:28;;;;;;;0.88;0.88;;;;;;;;;;5056935;28;20186;-82
2022/07/04 12:04:57;;;;;;;0.85;0.85;;;;;;;;;;5056792;28;20662;-82
2022/07/04 12:07:27;;;;;;;0.80;0.80;;;;;;;;;;5056577;28;20204;-83
2022/07/04 12:09:57;;;;;;;0.60;0.60;;;;;;;;;;5056447;28;20709;-82
2022/07/04 12:12:25;;;;;;;0.60;0.60;;;;;;;;;;5056586;28;20748;-82
2022/07/04 12:15:04;;;;;;;1.33;1.00;;;;;;;;;;5056175;28;20233;-81
2022/07/04 12:17:35;;;;;;;0.60;0.60;;;;;;;;;;5056243;28;20241;-81
2022/07/04 12:20:10;;;;;;;0.85;0.75;;;;;;;;;;5056427;28;20225;-82
2022/07/04 12:22:41;;;;;;;2.38;0.93;;;;;;;;;;5055745;28;20244;-82
2022/07/04 12:25:23;;;;;;;0.68;0.68;;;;;;;;;;5056442;28;20212;-83
2022/07/04 12:27:56;;;;;;;1.27;0.70;;;;;;;;;;5056418;28;20237;-81
2022/07/04 12:30:24;;;;;;;0.75;0.75;;;;;;;;;;5056698;28;20257;-82
2022/07/04 12:32:53;;;;;;;0.70;0.70;;;;;;;;;;5056725;28;20236;-82
2022/07/04 12:35:47;;;;;;;0.88;0.85;;;;;;;;;;5055649;28;20229;-82
2022/07/04 12:38:21;;;;;;;0.68;0.68;;;;;;;;;;5056667;28;20683;-82
2022/07/04 12:40:56;;;;;;;0.70;0.70;;;;;;;;;;5056564;28;20261;-82
2022/07/04 12:43:25;;;;;;;0.70;0.70;;;;;;;;;;5056876;28;20213;-82
2022/07/04 12:45:55;;;;;;;0.63;0.63;;;;;;;;;;5056741;28;20236;-82
2022/07/04 12:48:26;;;;;;;0.60;0.60;;;;;;;;;;5057051;28;20202;-82
2022/07/04 12:50:55;;;;;;;0.68;0.68;;;;;;;;;;5056545;28;20710;-82
2022/07/04 12:53:23;;;;;;;0.40;0.40;;;;;;;;;;5056059;28;20231;-82
2022/07/04 12:55:52;;;;;;;0.50;0.50;;;;;;;;;;5057284;28;20698;-81
2022/07/04 12:58:20;;;;;;;0.75;0.75;;;;;;;;;;5056347;28;20267;-82
2022/07/04 13:00:47;;;;;;;1.00;1.00;;;;;;;;;;5056330;28;20213;-82
2022/07/04 13:03:15;;;;;;;0.63;0.63;;;;;;;;;;5056433;28;20229;-82
2022/07/04 13:05:43;;;;;;;0.52;0.52;;;;;;;;;;5055952;28;20205;-82
2022/07/04 13:08:11;;;;;;;0.95;0.95;;;;;;;;;;5055963;28;20233;-82
2022/07/04 13:10:39;;;;;;;0.60;0.60;;;;;;;;;;5055935;28;20278;-82
2022/07/04 13:13:08;;;;;;;0.60;0.60;;;;;;;;;;5055826;28;20233;-83
2022/07/04 13:15:36;;;;;;;0.80;0.80;;;;;;;;;;5056024;28;20737;-82
2022/07/04 13:18:03;;;;;;;0.60;0.60;;;;;;;;;;5055873;28;20252;-81
2022/07/04 13:20:31;;;;;;;0.70;0.70;;;;;;;;;;5055926;28;20304;-82
2022/07/04 13:22:59;;;;;;;0.60;0.60;;;;;;;;;;5057039;28;20248;-82
2022/07/04 13:25:26;;;;;;;0.85;0.52;;;;;;;;;;5056413;28;20248;-82
2022/07/04 13:27:54;;;;;;;0.70;0.70;;;;;;;;;;5065746;28;20233;-82
2022/07/04 13:30:23;;;;;;;0.70;0.70;;;;;;;;;;5075779;28;20221;-81
2022/07/04 13:32:50;;;;;;;1.30;0.68;;;;;;;;;;5075386;28;20229;-82
2022/07/04 13:35:18;;;;;;;0.68;0.68;;;;;;;;;;5074970;28;20626;-82
2022/07/04 13:37:45;;;;;;;0.70;0.70;;;;;;;;;;5076043;28;20665;-82
2022/07/04 13:40:14;;;;;;;0.70;0.70;;;;;;;;;;5075330;28;20575;-81
2022/07/04 13:43:00;;;;;;;0.68;0.68;;;;;;;;;;5074567;28;20205;-81
2022/07/04 13:45:29;;;;;;;0.60;0.60;;;;;;;;;;5075482;28;20215;-82
2022/07/04 13:47:56;;;;;;;0.50;0.50;;;;;;;;;;5076286;28;20228;-82
2022/07/04 13:50:24;;;;;;;0.80;0.80;;;;;;;;;;5075348;28;20224;-81
2022/07/04 13:52:51;;;;;;;0.55;0.55;;;;;;;;;;5075413;28;20251;-82
2022/07/04 13:55:19;;;;;;;0.80;0.80;;;;;;;;;;5075670;28;20619;-81
2022/07/04 13:57:47;;;;;;;0.70;0.70;;;;;;;;;;5057372;28;20237;-82
2022/07/04 14:00:15;;;;;;;0.52;0.52;;;;;;;;;;5064081;28;20224;-81
2022/07/04 14:02:44;;;;;;;0.60;0.60;;;;;;;;;;5075417;28;20300;-81
2022/07/04 14:05:11;;;;;;;0.60;0.60;;;;;;;;;;5075893;28;20201;-82
2022/07/04 14:07:39;;;;;;;0.80;0.80;;;;;;;;;;5074357;28;20296;-82
2022/07/04 14:10:08;;;;;;;0.68;0.68;;;;;;;;;;5073540;28;20267;-83
2022/07/04 14:12:35;;;;;;;0.70;0.70;;;;;;;;;;5079617;28;20196;-83
2022/07/04 14:15:03;;;;;;;0.80;0.80;;;;;;;;;;5081433;28;20216;-83
2022/07/04 14:17:31;;;;;;;0.85;0.85;;;;;;;;;;5085109;28;20239;-83
2022/07/04 14:20:00;;;;;;;1.05;0.75;;;;;;;;;;5085762;28;20189;-83
2022/07/04 14:22:28;;;;;;;0.65;0.65;;;;;;;;;;5086994;28;20220;-83
2022/07/04 14:24:55;;;;;;;0.63;0.63;;;;;;;;;;5087357;28;20268;-83
2022/07/04 14:27:23;;;;;;;0.60;0.60;;;;;;;;;;5082276;28;20331;-86
2022/07/04 14:29:50;;;;;;;0.70;0.70;;;;;;;;;;5066412;28;20276;-85
2022/07/04 14:32:19;;;;;;;0.70;0.70;;;;;;;;;;5065711;28;20217;-86
2022/07/04 14:34:47;;;;;;;0.70;0.70;;;;;;;;;;5066098;28;20247;-84
2022/07/04 14:37:16;;;;;;;0.70;0.70;;;;;;;;;;5068009;28;20208;-83
2022/07/04 14:39:43;;;;;;;0.65;0.65;;;;;;;;;;5066115;28;20257;-85
2022/07/04 14:42:11;;;;;;;0.60;0.60;;;;;;;;;;5065741;28;20658;-84
2022/07/04 14:44:39;;;;;;;0.63;0.63;;;;;;;;;;5066783;28;20221;-83
2022/07/04 14:47:07;;;;;;;0.47;0.47;;;;;;;;;;5066229;28;20202;-82
2022/07/04 14:49:34;;;;;;;1.95;0.88;;;;;;;;;;5066552;28;20209;-82
2022/07/04 14:52:03;;;;;;;1.90;0.70;;;;;;;;;;5066094;28;20268;-86
2022/07/04 14:54:32;;;;;;;0.50;0.50;;;;;;;;;;5063378;28;20193;-83
2022/07/04 14:57:00;;;;;;;0.70;0.70;;;;;;;;;;5062812;28;20244;-82
2022/07/04 14:59:28;;;;;;;0.70;0.70;;;;;;;;;;5062640;28;20198;-83
2022/07/04 15:01:55;;;;;;;0.77;0.68;;;;;;;;;;5064504;28;20218;-83
2022/07/04 15:04:23;;;;;;;0.80;0.80;;;;;;;;;;5046933;28;20293;-83
2022/07/04 15:06:51;;;;;;;0.98;0.70;;;;;;;;;;5064592;28;20202;-83
2022/07/04 15:09:18;;;;;;;0.77;0.77;;;;;;;;;;5065987;28;20205;-82
2022/07/04 15:11:47;;;;;;;0.50;0.50;;;;;;;;;;5066512;28;20694;-84